createdAt,value
2018-07-09T13:47:11.325Z,47.76
2018-07-09T13:48:11.297Z,47.74
2018-07-09T13:50:04.171Z,47.64
2018-07-09T13:51:04.132Z,48.20
2018-07-09T13:52:57.007Z,49.56
2018-07-09T13:53:56.970Z,49.63
2018-07-09T13:55:49.878Z,50.12
2018-07-09T13:56:49.822Z,49.73
2018-07-09T13:58:42.719Z,51.35
2018-07-09T13:59:42.677Z,51.54
2018-07-09T14:01:35.583Z,51.54
2018-07-09T14:02:35.525Z,51.54
2018-07-09T14:04:28.442Z,50.96
2018-07-09T14:05:28.393Z,51.35
2018-07-09T14:07:21.280Z,51.64
2018-07-09T14:08:21.228Z,52.80
2018-07-09T14:09:21.206Z,52.61
2018-07-09T14:10:21.192Z,51.28
2018-07-09T14:11:21.155Z,51.47
2018-07-09T14:12:21.139Z,51.18
2018-07-09T14:13:21.111Z,50.99
2018-07-09T14:14:21.091Z,50.89
2018-07-09T14:15:21.069Z,49.85
2018-07-09T14:16:21.040Z,49.75
2018-07-09T14:17:21.019Z,49.07
2018-07-09T14:18:20.997Z,49.56
2018-07-09T14:19:20.983Z,49.27
2018-07-09T14:20:20.954Z,49.37
2018-07-09T14:21:20.932Z,49.66
2018-07-09T14:22:20.933Z,49.56
2018-07-09T14:23:20.889Z,49.56
2018-07-09T14:24:20.855Z,49.75
2018-07-09T14:25:20.836Z,49.46
2018-07-09T14:26:20.822Z,49.54
2018-07-09T14:27:20.789Z,50.70
2018-07-09T14:28:20.781Z,50.70
2018-07-09T14:29:20.743Z,51.06
2018-07-09T14:30:20.731Z,50.96
2018-07-09T14:31:20.697Z,51.45
2018-07-09T14:32:20.683Z,51.45
2018-07-09T14:33:20.661Z,51.74
2018-07-09T14:34:20.627Z,51.64
2018-07-09T14:35:20.615Z,52.49
2018-07-09T14:36:20.588Z,52.68
2018-07-09T14:37:20.577Z,52.97
2018-07-09T14:38:20.545Z,52.97
2018-07-09T14:39:20.520Z,53.43
2018-07-09T14:40:20.493Z,53.91
2018-07-09T14:41:20.471Z,53.72
2018-07-09T14:42:20.453Z,54.39
2018-07-09T14:43:20.427Z,54.59
2018-07-09T14:44:20.402Z,54.88
2018-07-09T14:45:20.384Z,55.27
2018-07-09T14:46:20.359Z,55.07
2018-07-09T14:47:20.341Z,55.17
2018-07-09T14:48:20.308Z,55.46
2018-07-09T14:49:20.304Z,55.66
2018-07-09T14:50:20.263Z,55.24
2018-07-09T14:51:20.243Z,55.63
2018-07-09T14:52:20.227Z,56.02
2018-07-09T14:53:20.201Z,55.63
2018-07-09T14:54:20.180Z,55.24
2018-07-09T14:55:20.153Z,55.63
2018-07-09T14:56:20.127Z,55.53
2018-07-09T14:57:20.103Z,55.53
2018-07-09T14:58:20.096Z,55.73
2018-07-09T14:59:20.072Z,55.73
2018-07-09T15:00:20.052Z,56.50
2018-07-09T15:01:20.012Z,58.14
2018-07-09T15:02:20.019Z,59.11
2018-07-09T15:03:19.987Z,58.80
2018-07-09T15:04:20.001Z,60.14
2018-07-09T15:05:19.912Z,61.21
2018-07-09T15:06:19.889Z,60.82
2018-07-09T15:07:19.868Z,60.24
2018-07-09T15:08:19.848Z,59.95
2018-07-09T15:09:19.825Z,59.95
2018-07-09T15:10:19.798Z,59.47
2018-07-09T15:11:19.778Z,60.72
2018-07-09T15:12:19.752Z,60.82
2018-07-09T15:13:19.816Z,60.63
2018-07-09T15:14:19.706Z,60.92
2018-07-09T15:15:19.675Z,61.40
2018-07-09T15:16:19.661Z,61.30
2018-07-09T15:17:19.643Z,60.50
2018-07-09T15:18:19.612Z,61.40
2018-07-09T15:19:19.591Z,61.89
2018-07-09T15:20:19.560Z,61.69
2018-07-09T15:21:19.535Z,62.27
2018-07-09T15:22:19.515Z,61.89
2018-07-09T15:23:19.494Z,61.98
2018-07-09T15:24:19.470Z,61.69
2018-07-09T15:25:19.441Z,62.27
2018-07-09T15:26:19.420Z,62.95
2018-07-09T15:27:19.389Z,62.27
2018-07-09T15:28:19.373Z,62.18
2018-07-09T15:29:19.353Z,62.95
2018-07-09T15:30:19.330Z,62.27
2018-07-09T15:31:19.318Z,61.89
2018-07-09T15:32:19.277Z,62.27
2018-07-09T15:33:19.256Z,62.37
2018-07-09T15:34:19.227Z,62.18
2018-07-09T15:35:19.205Z,61.69
2018-07-09T15:36:19.200Z,62.08
2018-07-09T15:37:19.157Z,61.11
2018-07-09T15:38:19.134Z,61.63
2018-07-09T15:39:19.105Z,61.24
2018-07-09T15:40:19.087Z,61.21
2018-07-09T15:41:19.064Z,61.63
2018-07-09T15:42:19.053Z,61.33
2018-07-09T15:43:19.018Z,60.66
2018-07-09T15:44:18.984Z,59.98
2018-07-09T15:45:18.970Z,60.57
2018-07-09T15:46:18.938Z,60.66
2018-07-09T15:47:18.920Z,61.05
2018-07-09T15:48:18.899Z,60.57
2018-07-09T15:49:18.874Z,60.85
2018-07-09T15:50:18.846Z,60.47
2018-07-09T15:51:18.826Z,60.27
2018-07-09T15:52:18.804Z,60.75
2018-07-09T15:53:18.781Z,60.75
2018-07-09T15:54:18.757Z,60.47
2018-07-09T15:55:18.730Z,61.15
2018-07-09T15:56:18.709Z,61.63
2018-07-09T15:57:18.679Z,61.24
2018-07-09T15:58:18.665Z,61.63
2018-07-09T15:59:18.637Z,62.11
2018-07-09T16:00:18.619Z,61.63
2018-07-09T16:01:18.592Z,61.92
2018-07-09T16:02:18.562Z,61.53
2018-07-09T16:03:18.537Z,61.24
2018-07-09T16:04:18.522Z,61.63
2018-07-09T16:05:18.504Z,61.63
2018-07-09T16:06:18.476Z,61.05
2018-07-09T16:07:18.480Z,60.85
2018-07-09T16:08:18.490Z,62.21
2018-07-09T16:09:18.566Z,62.30
2018-07-09T16:10:18.387Z,62.30
2018-07-09T16:11:18.352Z,62.40
2018-07-09T16:12:18.334Z,61.92
2018-07-09T16:13:18.305Z,61.63
2018-07-09T16:14:18.287Z,61.53
2018-07-09T16:15:18.263Z,61.33
2018-07-09T16:16:18.235Z,61.82
2018-07-09T16:17:18.217Z,62.79
2018-07-09T16:18:18.190Z,62.98
2018-07-09T16:19:18.163Z,62.40
2018-07-09T16:20:18.289Z,62.59
2018-07-09T16:21:18.116Z,62.40
2018-07-09T16:22:18.101Z,63.27
2018-07-09T16:23:18.075Z,63.37
2018-07-09T16:24:18.046Z,63.56
2018-07-09T16:25:18.029Z,64.04
2018-07-09T16:26:17.996Z,63.27
2018-07-09T16:27:17.974Z,63.56
2018-07-09T16:28:17.956Z,63.56
2018-07-09T16:29:18.081Z,62.88
2018-07-09T16:30:17.910Z,62.98
2018-07-09T16:31:17.887Z,62.79
2018-07-09T16:32:17.873Z,62.88
2018-07-09T16:33:17.841Z,62.59
2018-07-09T16:34:17.825Z,62.43
2018-07-09T16:35:17.786Z,61.76
2018-07-09T16:36:17.802Z,61.56
2018-07-09T16:37:17.740Z,60.78
2018-07-09T16:38:17.723Z,61.36
2018-07-09T16:39:17.701Z,60.21
2018-07-09T16:40:17.665Z,59.82
2018-07-09T16:41:17.652Z,59.36
2018-07-09T16:42:17.651Z,59.56
2018-07-09T16:43:17.668Z,59.84
2018-07-09T16:44:17.653Z,58.52
2018-07-09T16:45:17.667Z,57.91
2018-07-09T16:46:17.532Z,57.53
2018-07-09T16:47:17.520Z,57.65
2018-07-09T16:48:17.480Z,57.45
2018-07-09T16:49:17.471Z,56.20
2018-07-09T16:50:17.436Z,56.68
2018-07-09T16:51:17.415Z,57.00
2018-07-09T16:52:17.404Z,55.83
2018-07-09T16:53:17.375Z,55.47
2018-07-09T16:54:17.351Z,53.85
2018-07-09T16:55:17.332Z,52.81
2018-07-09T16:56:17.344Z,53.03
2018-07-09T16:57:17.273Z,51.50
2018-07-09T16:58:17.269Z,50.43
2018-07-09T16:59:17.235Z,49.71
2018-07-09T17:00:17.213Z,49.02
2018-07-09T17:01:17.187Z,48.17
2018-07-09T17:02:17.183Z,47.98
2018-07-09T17:03:17.191Z,46.88
2018-07-09T17:04:17.116Z,47.34
2018-07-09T17:05:17.101Z,48.58
2018-07-09T17:06:17.072Z,49.85
2018-07-09T17:07:17.048Z,49.63
2018-07-09T17:08:17.033Z,50.77
2018-07-09T17:09:17.002Z,51.72
2018-07-09T17:10:16.984Z,52.66
2018-07-09T17:11:16.963Z,53.31
2018-07-09T17:12:16.933Z,54.86
2018-07-09T17:13:16.920Z,55.35
2018-07-09T17:14:16.906Z,56.00
2018-07-09T17:15:16.871Z,56.29
2018-07-09T17:16:16.850Z,56.39
2018-07-09T17:17:16.819Z,57.36
2018-07-09T17:18:16.801Z,58.11
2018-07-09T17:19:16.909Z,58.78
2018-07-09T17:20:16.750Z,58.85
2018-07-09T17:21:16.727Z,59.43
2018-07-09T17:22:16.716Z,59.72
2018-07-09T17:23:16.681Z,61.08
2018-07-09T17:24:16.661Z,60.40
2018-07-09T17:25:16.638Z,61.18
2018-07-09T17:26:16.676Z,61.27
2018-07-09T17:27:16.785Z,61.18
2018-07-09T17:28:16.565Z,61.11
2018-07-09T17:29:16.547Z,61.66
2018-07-09T17:30:16.516Z,60.04
2018-07-09T17:31:16.511Z,59.49
2018-07-09T17:32:16.513Z,57.48
2018-07-09T17:33:16.454Z,55.79
2018-07-09T17:34:16.434Z,54.82
2018-07-09T17:35:16.404Z,54.07
2018-07-09T17:36:16.382Z,53.49
2018-07-09T17:37:16.351Z,51.62
2018-07-09T17:38:16.344Z,50.12
2018-07-09T17:39:16.307Z,47.53
2018-07-09T17:40:16.347Z,46.78
2018-07-09T17:41:16.268Z,45.34
2018-07-09T17:42:16.243Z,45.36
2018-07-09T17:43:16.221Z,44.48
2018-07-09T17:44:16.194Z,44.56
2018-07-09T17:45:16.176Z,44.93
2018-07-09T17:46:16.151Z,45.76
2018-07-09T17:47:16.126Z,46.61
2018-07-09T17:48:16.105Z,47.69
2018-07-09T17:49:16.088Z,48.41
2018-07-09T17:50:16.069Z,50.21
2018-07-09T17:51:16.035Z,51.75
2018-07-09T17:52:16.016Z,53.08
2018-07-09T17:53:15.995Z,53.75
2018-07-09T17:54:15.967Z,54.80
2018-07-09T17:55:15.945Z,55.57
2018-07-09T17:56:15.940Z,55.38
2018-07-09T17:57:15.901Z,56.23
2018-07-09T17:58:15.879Z,56.90
2018-07-09T17:59:15.858Z,57.39
2018-07-09T18:00:15.833Z,56.71
2018-07-09T18:01:15.806Z,56.61
2018-07-09T18:02:15.788Z,56.71
2018-07-09T18:03:15.770Z,56.15
2018-07-09T18:04:15.737Z,56.41
2018-07-09T18:05:15.728Z,56.32
2018-07-09T18:06:15.698Z,56.87
2018-07-09T18:07:15.670Z,58.01
2018-07-09T18:08:15.659Z,58.30
2018-07-09T18:09:15.623Z,58.39
2018-07-09T18:10:15.619Z,58.11
2018-07-09T18:11:15.579Z,57.91
2018-07-09T18:12:15.581Z,58.30
2018-07-09T18:13:15.535Z,58.88
2018-07-09T18:14:15.519Z,58.78
2018-07-09T18:15:15.490Z,60.11
2018-07-09T18:16:15.473Z,59.91
2018-07-09T18:17:15.441Z,60.59
2018-07-09T18:18:15.421Z,61.56
2018-07-09T18:19:15.400Z,62.50
2018-07-09T18:20:15.375Z,63.08
2018-07-09T18:21:15.458Z,63.73
2018-07-09T18:22:15.325Z,65.01
2018-07-09T18:23:15.303Z,65.75
2018-07-09T18:24:15.289Z,66.47
2018-07-09T18:25:15.255Z,66.66
2018-07-09T18:26:15.234Z,67.33
2018-07-09T18:27:15.216Z,66.85
2018-07-09T18:28:15.183Z,66.63
2018-07-09T18:29:15.160Z,66.66
2018-07-09T18:30:15.150Z,66.47
2018-07-09T18:31:15.118Z,65.50
2018-07-09T18:32:15.094Z,64.43
2018-07-09T18:33:15.069Z,64.72
2018-07-09T18:34:15.054Z,65.37
2018-07-09T18:35:15.054Z,65.75
2018-07-09T18:36:14.999Z,65.85
2018-07-09T18:37:15.028Z,65.66
2018-07-09T18:38:14.960Z,66.63
2018-07-09T18:39:14.934Z,66.69
2018-07-09T18:40:14.902Z,68.24
2018-07-09T18:41:14.873Z,68.33
2018-07-09T18:42:14.864Z,69.01
2018-07-09T18:43:14.830Z,69.20
2018-07-09T18:44:14.811Z,69.88
2018-07-09T18:45:14.803Z,69.88
2018-07-09T18:46:14.761Z,69.94
2018-07-09T18:47:14.743Z,69.88
2018-07-09T18:48:14.713Z,70.42
2018-07-09T18:49:14.699Z,70.65
2018-07-09T18:50:14.662Z,71.39
2018-07-09T18:51:14.652Z,72.36
2018-07-09T18:52:14.625Z,74.29
2018-07-09T18:53:14.601Z,75.12
2018-07-09T18:54:14.574Z,76.47
2018-07-09T18:55:14.553Z,77.44
2018-07-09T18:56:14.523Z,77.63
2018-07-09T18:57:14.503Z,77.92
2018-07-09T18:58:14.488Z,78.59
2018-07-09T18:59:14.449Z,79.37
2018-07-09T19:00:14.425Z,79.66
2018-07-09T19:01:14.401Z,80.24
2018-07-09T19:02:14.379Z,81.55
2018-07-09T19:03:14.367Z,82.03
2018-07-09T19:04:14.325Z,82.51
2018-07-09T19:05:14.307Z,83.00
2018-07-09T19:06:14.279Z,83.00
2018-07-09T19:07:14.251Z,83.44
2018-07-09T19:08:14.224Z,84.01
2018-07-09T19:09:14.205Z,84.11
2018-07-09T19:10:14.231Z,84.11
2018-07-09T19:11:14.152Z,84.31
2018-07-09T19:12:14.136Z,84.11
2018-07-09T19:13:14.102Z,84.69
2018-07-09T19:14:14.090Z,84.59
2018-07-09T19:15:14.071Z,84.41
2018-07-09T19:16:14.033Z,85.08
2018-07-09T19:17:14.014Z,84.50
2018-07-09T19:18:13.985Z,84.35
2018-07-09T19:19:13.961Z,84.54
2018-07-09T19:20:13.937Z,84.50
2018-07-09T19:21:14.034Z,84.31
2018-07-09T19:22:13.891Z,84.50
2018-07-09T19:23:13.863Z,84.44
2018-07-09T19:24:13.843Z,84.31
2018-07-09T19:25:13.812Z,84.59
2018-07-09T19:26:13.794Z,84.69
2018-07-09T19:27:13.779Z,84.21
2018-07-09T19:28:13.775Z,84.69
2018-07-09T19:29:13.716Z,84.89
2018-07-09T19:30:13.695Z,84.89
2018-07-09T19:31:13.700Z,84.79
2018-07-09T19:32:13.644Z,84.69
2018-07-09T19:33:13.640Z,84.50
2018-07-09T19:34:13.593Z,84.98
2018-07-09T19:35:13.591Z,84.69
2018-07-09T19:36:13.546Z,84.98
2018-07-09T19:37:13.711Z,85.08
2018-07-09T19:38:13.492Z,85.37
2018-07-09T19:39:13.477Z,85.27
2018-07-09T19:40:13.494Z,85.03
2018-07-09T19:41:13.417Z,85.33
2018-07-09T19:42:13.400Z,85.61
2018-07-09T19:43:13.374Z,85.23
2018-07-09T19:44:13.343Z,85.61
2018-07-09T19:45:13.324Z,85.33
2018-07-09T19:46:13.299Z,85.33
2018-07-09T19:47:13.283Z,85.81
2018-07-09T19:48:13.239Z,85.61
2018-07-09T19:49:13.224Z,85.61
2018-07-09T19:50:13.210Z,85.81
2018-07-09T19:51:13.169Z,85.91
2018-07-09T19:52:13.144Z,85.52
2018-07-09T19:53:13.120Z,85.52
2018-07-09T19:54:13.104Z,86.00
2018-07-09T19:55:13.073Z,85.57
2018-07-09T19:56:13.052Z,85.57
2018-07-09T19:57:13.022Z,86.05
2018-07-09T19:58:12.995Z,85.77
2018-07-09T19:59:13.057Z,85.86
2018-07-09T20:00:12.947Z,85.86
2018-07-09T20:01:12.924Z,85.96
2018-07-09T20:02:12.906Z,85.77
2018-07-09T20:03:12.874Z,86.15
2018-07-09T20:04:12.853Z,85.91
2018-07-09T20:05:12.821Z,86.15
2018-07-09T20:06:12.840Z,85.38
2018-07-09T20:07:12.879Z,85.63
2018-07-09T20:08:12.769Z,85.43
2018-07-09T20:09:12.759Z,86.01
2018-07-09T20:10:12.722Z,86.11
2018-07-09T20:11:12.671Z,85.05
2018-07-09T20:12:12.652Z,85.91
2018-07-09T20:13:12.629Z,85.72
2018-07-09T20:14:12.601Z,85.34
2018-07-09T20:15:12.595Z,85.05
2018-07-09T20:16:12.546Z,85.43
2018-07-09T20:17:12.532Z,85.05
2018-07-09T20:18:12.493Z,85.91
2018-07-09T20:19:12.475Z,85.82
2018-07-09T20:20:12.448Z,85.82
2018-07-09T20:21:12.420Z,86.21
2018-07-09T20:22:12.402Z,85.49
2018-07-09T20:23:12.377Z,85.00
2018-07-09T20:24:12.406Z,85.10
2018-07-09T20:25:12.327Z,86.01
2018-07-09T20:26:12.295Z,86.21
2018-07-09T20:27:12.342Z,85.87
2018-07-09T20:28:12.248Z,86.26
2018-07-09T20:29:12.218Z,86.45
2018-07-09T20:30:12.201Z,85.87
2018-07-09T20:31:12.174Z,85.97
2018-07-09T20:32:12.148Z,86.07
2018-07-09T20:33:12.129Z,86.26
2018-07-09T20:34:12.098Z,86.22
2018-07-09T20:35:12.069Z,86.02
2018-07-09T20:36:12.049Z,85.93
2018-07-09T20:37:12.023Z,86.02
2018-07-09T20:38:11.997Z,85.93
2018-07-09T20:39:11.976Z,85.25
2018-07-09T20:40:12.005Z,85.35
2018-07-09T20:41:11.923Z,85.93
2018-07-09T20:42:11.894Z,86.02
2018-07-09T20:43:11.866Z,85.54
2018-07-09T20:44:11.848Z,85.35
2018-07-09T20:45:11.816Z,84.92
2018-07-09T20:46:11.793Z,85.98
2018-07-09T20:47:11.772Z,85.69
2018-07-09T20:48:11.738Z,85.31
2018-07-09T20:49:11.734Z,85.31
2018-07-09T20:50:11.713Z,84.92
2018-07-09T20:51:11.672Z,85.21
2018-07-09T20:52:11.646Z,85.40
2018-07-09T20:53:11.619Z,85.02
2018-07-09T20:54:11.644Z,85.02
2018-07-09T20:55:11.598Z,85.40
2018-07-09T20:56:11.564Z,84.92
2018-07-09T20:57:11.534Z,85.02
2018-07-09T20:58:11.488Z,85.50
2018-07-09T20:59:11.467Z,84.92
2018-07-09T21:00:11.437Z,83.96
2018-07-09T21:01:11.415Z,84.92
2018-07-09T21:02:11.385Z,85.11
2018-07-09T21:03:11.362Z,85.21
2018-07-09T21:04:11.333Z,84.88
2018-07-09T21:05:11.310Z,84.78
2018-07-09T21:06:11.306Z,84.98
2018-07-09T21:07:11.260Z,84.98
2018-07-09T21:08:11.232Z,84.30
2018-07-09T21:09:11.215Z,85.17
2018-07-09T21:10:11.180Z,84.78
2018-07-09T21:11:11.165Z,84.50
2018-07-09T21:12:11.132Z,84.88
2018-07-09T21:13:11.107Z,84.98
2018-07-09T21:14:11.081Z,84.98
2018-07-09T21:15:11.109Z,86.22
2018-07-09T21:16:11.162Z,85.84
2018-07-09T21:17:11.005Z,85.94
2018-07-09T21:18:10.980Z,85.94
2018-07-09T21:19:10.958Z,86.22
2018-07-09T21:20:10.925Z,86.13
2018-07-09T21:21:10.905Z,86.04
2018-07-09T21:22:10.904Z,86.22
2018-07-09T21:23:10.857Z,85.94
2018-07-09T21:24:10.845Z,86.13
2018-07-09T21:25:10.795Z,86.32
2018-07-09T21:26:10.788Z,85.94
2018-07-09T21:27:10.746Z,85.27
2018-07-09T21:28:10.730Z,86.04
2018-07-09T21:29:10.705Z,84.98
2018-07-09T21:30:10.670Z,85.13
2018-07-09T21:31:10.647Z,85.13
2018-07-09T21:32:10.637Z,85.32
2018-07-09T21:33:10.613Z,85.61
2018-07-09T21:34:10.579Z,84.74
2018-07-09T21:35:10.551Z,84.55
2018-07-09T21:36:10.520Z,85.41
2018-07-09T21:37:10.493Z,84.84
2018-07-09T21:38:10.475Z,84.26
2018-07-09T21:39:10.442Z,84.84
2018-07-09T21:40:10.427Z,85.41
2018-07-09T21:41:10.399Z,85.32
2018-07-09T21:42:10.372Z,85.32
2018-07-09T21:43:10.347Z,86.18
2018-07-09T21:44:10.316Z,85.89
2018-07-09T21:45:10.289Z,86.18
2018-07-09T21:46:10.272Z,85.80
2018-07-09T21:47:10.251Z,86.57
2018-07-09T21:48:10.565Z,86.66
2018-07-09T21:49:10.195Z,86.66
2018-07-09T21:50:10.163Z,86.66
2018-07-09T21:51:10.140Z,86.85
2018-07-09T21:52:10.116Z,86.66
2018-07-09T21:53:10.095Z,86.47
2018-07-09T21:54:10.066Z,86.47
2018-07-09T21:55:10.036Z,86.57
2018-07-09T21:56:10.018Z,86.47
2018-07-09T21:57:09.988Z,86.76
2018-07-09T21:58:09.959Z,86.28
2018-07-09T21:59:09.936Z,86.47
2018-07-09T22:00:09.913Z,86.66
2018-07-09T22:01:09.934Z,86.28
2018-07-09T22:02:09.863Z,85.89
2018-07-09T22:03:09.833Z,86.47
2018-07-09T22:04:09.807Z,86.28
2018-07-09T22:05:09.782Z,85.89
2018-07-09T22:06:09.754Z,86.05
2018-07-09T22:07:09.798Z,85.80
2018-07-09T22:08:09.704Z,86.09
2018-07-09T22:09:09.677Z,86.38
2018-07-09T22:10:09.660Z,86.28
2018-07-09T22:11:09.628Z,86.47
2018-07-09T22:12:09.599Z,85.71
2018-07-09T22:13:09.575Z,85.99
2018-07-09T22:14:09.545Z,86.47
2018-07-09T22:15:09.523Z,86.09
2018-07-09T22:16:09.512Z,86.38
2018-07-09T22:17:09.469Z,86.47
2018-07-09T22:18:09.452Z,86.18
2018-07-09T22:19:09.419Z,86.47
2018-07-09T22:20:09.402Z,86.38
2018-07-09T22:21:09.380Z,86.38
2018-07-09T22:22:09.344Z,85.51
2018-07-09T22:23:09.323Z,85.61
2018-07-09T22:24:09.288Z,85.71
2018-07-09T22:25:09.273Z,85.99
2018-07-09T22:26:09.244Z,85.89
2018-07-09T22:27:09.222Z,85.80
2018-07-09T22:28:09.190Z,85.95
2018-07-09T22:29:09.161Z,85.47
2018-07-09T22:30:09.145Z,85.80
2018-07-09T22:31:09.109Z,85.03
2018-07-09T22:32:09.089Z,85.80
2018-07-09T22:33:09.065Z,85.80
2018-07-09T22:34:09.031Z,86.18
2018-07-09T22:35:09.010Z,85.13
2018-07-09T22:36:08.987Z,85.32
2018-07-09T22:37:08.955Z,85.22
2018-07-09T22:38:08.934Z,84.84
2018-07-09T22:39:08.910Z,84.89
2018-07-09T22:40:08.908Z,85.28
2018-07-09T22:41:08.852Z,84.03
2018-07-09T22:42:08.829Z,84.41
2018-07-09T22:43:08.807Z,84.22
2018-07-09T22:44:08.777Z,84.22
2018-07-09T22:45:08.757Z,85.75
2018-07-09T22:46:08.724Z,86.33
2018-07-09T22:47:08.703Z,85.57
2018-07-09T22:48:08.673Z,85.95
2018-07-09T22:49:08.646Z,85.75
2018-07-09T22:50:08.629Z,86.33
2018-07-09T22:51:08.658Z,86.33
2018-07-09T22:52:08.570Z,86.14
2018-07-09T22:53:08.552Z,85.95
2018-07-09T22:54:08.516Z,86.14
2018-07-09T22:55:08.494Z,85.95
2018-07-09T22:56:08.472Z,85.95
2018-07-09T22:57:08.442Z,85.18
2018-07-09T22:58:08.414Z,85.04
2018-07-09T22:59:08.406Z,84.95
2018-07-09T23:00:08.366Z,84.47
2018-07-09T23:01:08.339Z,85.14
2018-07-09T23:02:08.321Z,85.14
2018-07-09T23:03:08.285Z,85.24
2018-07-09T23:04:08.260Z,85.42
2018-07-09T23:05:08.257Z,85.24
2018-07-09T23:06:08.212Z,86.10
2018-07-09T23:07:08.185Z,85.42
2018-07-09T23:08:08.161Z,86.10
2018-07-09T23:09:08.135Z,86.29
2018-07-09T23:10:08.108Z,85.91
2018-07-09T23:11:08.082Z,86.10
2018-07-09T23:12:08.054Z,86.38
2018-07-09T23:13:08.024Z,85.71
2018-07-09T23:14:08.004Z,85.81
2018-07-09T23:15:07.978Z,86.15
2018-07-09T23:16:07.955Z,86.25
2018-07-09T23:17:07.927Z,86.38
2018-07-09T23:18:07.903Z,86.92
2018-07-09T23:19:07.871Z,86.34
2018-07-09T23:20:07.843Z,86.15
2018-07-09T23:21:07.817Z,87.01
2018-07-09T23:22:07.800Z,87.98
2018-07-09T23:23:07.766Z,86.72
2018-07-09T23:24:07.750Z,86.72
2018-07-09T23:25:07.721Z,87.30
2018-07-09T23:26:07.689Z,86.92
2018-07-09T23:27:07.672Z,87.30
2018-07-09T23:28:07.637Z,87.30
2018-07-09T23:29:07.611Z,86.82
2018-07-09T23:30:07.584Z,86.54
2018-07-09T23:31:07.561Z,87.98
2018-07-09T23:32:07.539Z,87.78
2018-07-09T23:33:07.507Z,87.40
2018-07-09T23:34:07.488Z,88.35
2018-07-09T23:35:07.458Z,88.55
2018-07-09T23:36:07.435Z,88.55
2018-07-09T23:37:07.413Z,88.74
2018-07-09T23:38:07.377Z,87.98
2018-07-09T23:39:07.363Z,88.55
2018-07-09T23:40:07.330Z,88.45
2018-07-09T23:41:07.300Z,88.65
2018-07-09T23:42:07.357Z,88.65
2018-07-09T23:43:07.250Z,88.55
2018-07-09T23:44:07.228Z,88.45
2018-07-09T23:45:07.213Z,88.45
2018-07-09T23:46:07.173Z,88.55
2018-07-09T23:47:07.145Z,87.98
2018-07-09T23:48:07.124Z,88.65
2018-07-09T23:49:07.093Z,87.88
2018-07-09T23:50:07.071Z,88.26
2018-07-09T23:51:07.148Z,88.26
2018-07-09T23:52:07.019Z,88.55
2018-07-09T23:53:06.993Z,88.26
2018-07-09T23:54:06.968Z,88.35
2018-07-09T23:55:06.935Z,88.45
2018-07-09T23:56:06.917Z,88.45
2018-07-09T23:57:06.882Z,88.26
2018-07-09T23:58:06.866Z,88.17
2018-07-09T23:59:06.838Z,88.35
